sensor_id;sensor_type;location;lat;lon;timestamp;pressure;altitude;pressure_sealevel;temperature;humidity
30935;BME280;51033;42.648;23.292;2023-02-28T00:00:32;94295.13;;;7.29;71.89
30935;BME280;51033;42.648;23.292;2023-02-28T00:02:58;94300.25;;;7.21;71.05
30935;BME280;51033;42.648;23.292;2023-02-28T00:05:25;94270.72;;;7.14;71.59
30935;BME280;51033;42.648;23.292;2023-02-28T00:07:51;94274.13;;;7.43;70.66
30935;BME280;51033;42.648;23.292;2023-02-28T00:10:35;94271.22;;;7.63;69.56
30935;BME280;51033;42.648;23.292;2023-02-28T00:13:03;94287.00;;;7.73;69.09
30935;BME280;51033;42.648;23.292;2023-02-28T00:15:30;94293.34;;;7.78;68.55
30935;BME280;51033;42.648;23.292;2023-02-28T00:17:55;94270.94;;;7.17;70.30
30935;BME280;51033;42.648;23.292;2023-02-28T00:20:21;94291.34;;;7.12;70.45
30935;BME280;51033;42.648;23.292;2023-02-28T00:22:48;94295.78;;;7.45;69.79
30935;BME280;51033;42.648;23.292;2023-02-28T00:25:17;94301.22;;;7.54;69.55
30935;BME280;51033;42.648;23.292;2023-02-28T00:27:43;94309.28;;;7.73;68.63
30935;BME280;51033;42.648;23.292;2023-02-28T00:30:14;94304.09;;;7.86;68.06
30935;BME280;51033;42.648;23.292;2023-02-28T00:32:40;94272.69;;;7.75;68.00
30935;BME280;51033;42.648;23.292;2023-02-28T00:35:06;94297.34;;;7.94;68.19
30935;BME280;51033;42.648;23.292;2023-02-28T00:37:32;94293.56;;;8.00;67.51
30935;BME280;51033;42.648;23.292;2023-02-28T00:39:59;94293.72;;;8.08;66.79
30935;BME280;51033;42.648;23.292;2023-02-28T00:42:25;94291.84;;;8.09;66.31
30935;BME280;51033;42.648;23.292;2023-02-28T00:44:50;94279.03;;;7.97;66.59
30935;BME280;51033;42.648;23.292;2023-02-28T00:47:16;94296.09;;;8.10;67.01
30935;BME280;51033;42.648;23.292;2023-02-28T00:49:42;94288.34;;;8.13;65.83
30935;BME280;51033;42.648;23.292;2023-02-28T00:52:07;94285.66;;;7.76;67.13
30935;BME280;51033;42.648;23.292;2023-02-28T00:54:33;94288.91;;;7.92;66.87
30935;BME280;51033;42.648;23.292;2023-02-28T00:56:58;94291.75;;;7.77;67.03
30935;BME280;51033;42.648;23.292;2023-02-28T00:59:24;94301.41;;;7.62;68.03
30935;BME280;51033;42.648;23.292;2023-02-28T01:01:49;94302.09;;;7.73;67.16
30935;BME280;51033;42.648;23.292;2023-02-28T01:04:15;94299.50;;;7.92;66.40
30935;BME280;51033;42.648;23.292;2023-02-28T01:06:40;94293.38;;;7.96;65.88
30935;BME280;51033;42.648;23.292;2023-02-28T01:09:06;94274.56;;;7.74;66.20
30935;BME280;51033;42.648;23.292;2023-02-28T01:11:33;94291.44;;;7.54;67.98
30935;BME280;51033;42.648;23.292;2023-02-28T01:13:59;94293.63;;;7.71;66.73
30935;BME280;51033;42.648;23.292;2023-02-28T01:16:24;94276.00;;;7.61;66.09
30935;BME280;51033;42.648;23.292;2023-02-28T01:18:50;94288.03;;;7.78;66.04
30935;BME280;51033;42.648;23.292;2023-02-28T01:21:18;94268.19;;;7.51;66.87
30935;BME280;51033;42.648;23.292;2023-02-28T01:23:43;94285.16;;;7.74;65.95
30935;BME280;51033;42.648;23.292;2023-02-28T01:26:14;94271.97;;;7.45;67.07
30935;BME280;51033;42.648;23.292;2023-02-28T01:28:41;94279.16;;;7.63;67.47
30935;BME280;51033;42.648;23.292;2023-02-28T01:31:06;94286.94;;;7.79;67.06
30935;BME280;51033;42.648;23.292;2023-02-28T01:33:32;94270.56;;;7.77;66.50
30935;BME280;51033;42.648;23.292;2023-02-28T01:36:06;94278.78;;;7.51;68.41
30935;BME280;51033;42.648;23.292;2023-02-28T01:38:33;94283.28;;;7.51;68.46
30935;BME280;51033;42.648;23.292;2023-02-28T01:40:58;94275.81;;;7.29;68.93
30935;BME280;51033;42.648;23.292;2023-02-28T01:43:26;94276.78;;;6.85;70.79
30935;BME280;51033;42.648;23.292;2023-02-28T01:45:53;94304.53;;;7.17;70.79
30935;BME280;51033;42.648;23.292;2023-02-28T01:48:21;94300.38;;;7.58;68.68
30935;BME280;51033;42.648;23.292;2023-02-28T01:50:47;94278.69;;;7.09;70.01
30935;BME280;51033;42.648;23.292;2023-02-28T01:53:18;94273.75;;;7.26;70.01
30935;BME280;51033;42.648;23.292;2023-02-28T01:55:47;94270.53;;;7.29;69.29
30935;BME280;51033;42.648;23.292;2023-02-28T01:58:15;94305.03;;;7.71;67.69
30935;BME280;51033;42.648;23.292;2023-02-28T02:00:41;94279.91;;;7.45;67.73
30935;BME280;51033;42.648;23.292;2023-02-28T02:03:13;94303.66;;;7.50;68.07
30935;BME280;51033;42.648;23.292;2023-02-28T02:05:41;94293.59;;;7.52;68.02
30935;BME280;51033;42.648;23.292;2023-02-28T02:08:11;94289.22;;;7.14;69.29
30935;BME280;51033;42.648;23.292;2023-02-28T02:10:44;94286.03;;;7.41;68.78
30935;BME280;51033;42.648;23.292;2023-02-28T02:16:03;94229.56;;;7.03;68.45
30935;BME280;51033;42.648;23.292;2023-02-28T02:29:31;94278.19;;;7.54;68.04
30935;BME280;51033;42.648;23.292;2023-02-28T02:40:29;94290.38;;;7.32;68.85
30935;BME280;51033;42.648;23.292;2023-02-28T02:43:07;94288.09;;;7.44;68.59
30935;BME280;51033;42.648;23.292;2023-02-28T02:45:44;94297.25;;;7.33;68.73
30935;BME280;51033;42.648;23.292;2023-02-28T02:48:13;94276.28;;;7.12;69.25
30935;BME280;51033;42.648;23.292;2023-02-28T02:50:48;94296.03;;;7.20;69.15
30935;BME280;51033;42.648;23.292;2023-02-28T02:53:16;94287.44;;;7.33;68.81
30935;BME280;51033;42.648;23.292;2023-02-28T02:55:44;94305.44;;;7.31;68.92
30935;BME280;51033;42.648;23.292;2023-02-28T02:58:14;94304.38;;;7.32;68.85
30935;BME280;51033;42.648;23.292;2023-02-28T03:00:43;94303.44;;;7.23;69.29
30935;BME280;51033;42.648;23.292;2023-02-28T03:03:12;94307.19;;;7.17;69.33
30935;BME280;51033;42.648;23.292;2023-02-28T03:05:49;94299.13;;;7.03;70.08
30935;BME280;51033;42.648;23.292;2023-02-28T03:08:15;94321.16;;;7.22;69.43
30935;BME280;51033;42.648;23.292;2023-02-28T03:10:43;94309.00;;;6.59;71.45
30935;BME280;51033;42.648;23.292;2023-02-28T03:23:56;94346.41;;;6.32;74.07
30935;BME280;51033;42.648;23.292;2023-02-28T03:26:27;94329.00;;;6.31;73.28
30935;BME280;51033;42.648;23.292;2023-02-28T03:31:57;94346.75;;;6.15;74.42
30935;BME280;51033;42.648;23.292;2023-02-28T03:34:46;94343.28;;;6.30;73.97
30935;BME280;51033;42.648;23.292;2023-02-28T03:37:17;94350.44;;;6.24;73.67
30935;BME280;51033;42.648;23.292;2023-02-28T03:39:48;94349.88;;;5.58;76.84
30935;BME280;51033;42.648;23.292;2023-02-28T03:42:18;94329.06;;;5.46;76.79
30935;BME280;51033;42.648;23.292;2023-02-28T03:44:51;94352.78;;;5.62;77.17
30935;BME280;51033;42.648;23.292;2023-02-28T03:47:26;94348.63;;;5.25;78.34
30935;BME280;51033;42.648;23.292;2023-02-28T03:49:55;94356.75;;;5.44;77.43
30935;BME280;51033;42.648;23.292;2023-02-28T03:52:24;94352.88;;;5.11;78.47
30935;BME280;51033;42.648;23.292;2023-02-28T03:54:55;94353.16;;;4.89;79.62
30935;BME280;51033;42.648;23.292;2023-02-28T04:00:10;94352.94;;;5.90;76.76
30935;BME280;51033;42.648;23.292;2023-02-28T04:02:37;94357.53;;;6.29;75.02
30935;BME280;51033;42.648;23.292;2023-02-28T04:05:05;94351.25;;;6.20;74.77
30935;BME280;51033;42.648;23.292;2023-02-28T04:07:31;94352.81;;;6.26;74.81
30935;BME280;51033;42.648;23.292;2023-02-28T04:09:57;94345.97;;;6.20;73.91
30935;BME280;51033;42.648;23.292;2023-02-28T04:12:23;94340.19;;;6.08;74.70
30935;BME280;51033;42.648;23.292;2023-02-28T04:14:49;94362.78;;;6.39;74.01
30935;BME280;51033;42.648;23.292;2023-02-28T04:17:15;94365.78;;;6.17;74.82
30935;BME280;51033;42.648;23.292;2023-02-28T04:19:41;94340.03;;;6.38;73.37
30935;BME280;51033;42.648;23.292;2023-02-28T04:22:08;94335.66;;;5.44;75.57
30935;BME280;51033;42.648;23.292;2023-02-28T04:24:35;94339.69;;;5.16;78.53
30935;BME280;51033;42.648;23.292;2023-02-28T04:27:01;94366.03;;;4.65;80.17
30935;BME280;51033;42.648;23.292;2023-02-28T04:29:31;94364.75;;;4.88;80.41
30935;BME280;51033;42.648;23.292;2023-02-28T04:31:58;94351.03;;;4.86;80.06
30935;BME280;51033;42.648;23.292;2023-02-28T04:34:25;94327.03;;;4.47;80.57
30935;BME280;51033;42.648;23.292;2023-02-28T04:36:52;94360.69;;;4.25;82.03
30935;BME280;51033;42.648;23.292;2023-02-28T04:39:20;94342.63;;;4.79;80.63
30935;BME280;51033;42.648;23.292;2023-02-28T04:41:45;94370.50;;;5.36;78.72
30935;BME280;51033;42.648;23.292;2023-02-28T04:44:11;94374.69;;;5.57;77.46
30935;BME280;51033;42.648;23.292;2023-02-28T04:46:37;94377.03;;;5.64;76.13
30935;BME280;51033;42.648;23.292;2023-02-28T04:49:02;94370.66;;;5.80;75.20
30935;BME280;51033;42.648;23.292;2023-02-28T04:51:28;94356.75;;;5.44;75.82
30935;BME280;51033;42.648;23.292;2023-02-28T04:53:54;94382.50;;;5.82;75.55
30935;BME280;51033;42.648;23.292;2023-02-28T04:56:19;94371.22;;;5.72;74.96
30935;BME280;51033;42.648;23.292;2023-02-28T04:58:46;94376.47;;;5.82;74.62
30935;BME280;51033;42.648;23.292;2023-02-28T05:01:29;94381.66;;;5.97;74.26
30935;BME280;51033;42.648;23.292;2023-02-28T05:03:57;94383.44;;;6.22;73.24
30935;BME280;51033;42.648;23.292;2023-02-28T05:06:24;94388.72;;;6.27;72.76
30935;BME280;51033;42.648;23.292;2023-02-28T05:08:51;94352.03;;;6.15;72.24
30935;BME280;51033;42.648;23.292;2023-02-28T05:11:23;94391.34;;;6.27;72.79
30935;BME280;51033;42.648;23.292;2023-02-28T05:13:49;94376.72;;;5.80;73.66
30935;BME280;51033;42.648;23.292;2023-02-28T05:16:15;94389.88;;;6.00;73.08
30935;BME280;51033;42.648;23.292;2023-02-28T05:18:41;94388.91;;;5.71;74.31
30935;BME280;51033;42.648;23.292;2023-02-28T05:21:23;94385.16;;;5.82;73.74
30935;BME280;51033;42.648;23.292;2023-02-28T05:23:49;94392.03;;;5.83;73.70
30935;BME280;51033;42.648;23.292;2023-02-28T05:26:14;94386.16;;;6.07;73.31
30935;BME280;51033;42.648;23.292;2023-02-28T05:28:40;94376.06;;;6.24;72.38
30935;BME280;51033;42.648;23.292;2023-02-28T05:31:05;94408.13;;;6.51;71.77
30935;BME280;51033;42.648;23.292;2023-02-28T05:33:31;94396.72;;;6.07;72.64
30935;BME280;51033;42.648;23.292;2023-02-28T05:35:56;94402.59;;;5.73;74.22
30935;BME280;51033;42.648;23.292;2023-02-28T05:38:21;94399.97;;;5.68;74.63
30935;BME280;51033;42.648;23.292;2023-02-28T05:40:47;94402.41;;;5.44;75.65
30935;BME280;51033;42.648;23.292;2023-02-28T05:43:12;94414.69;;;5.99;74.65
30935;BME280;51033;42.648;23.292;2023-02-28T05:45:38;94414.56;;;6.35;73.07
30935;BME280;51033;42.648;23.292;2023-02-28T05:48:04;94396.06;;;6.40;71.78
30935;BME280;51033;42.648;23.292;2023-02-28T05:50:29;94421.03;;;6.63;71.57
30935;BME280;51033;42.648;23.292;2023-02-28T05:52:55;94418.75;;;6.41;71.75
30935;BME280;51033;42.648;23.292;2023-02-28T05:55:20;94424.38;;;6.29;72.33
30935;BME280;51033;42.648;23.292;2023-02-28T05:57:45;94423.06;;;6.12;73.10
30935;BME280;51033;42.648;23.292;2023-02-28T06:00:11;94395.41;;;5.99;73.48
30935;BME280;51033;42.648;23.292;2023-02-28T06:02:38;94407.88;;;5.78;74.24
30935;BME280;51033;42.648;23.292;2023-02-28T06:05:05;94404.72;;;5.81;74.48
30935;BME280;51033;42.648;23.292;2023-02-28T06:07:30;94403.84;;;6.16;73.58
30935;BME280;51033;42.648;23.292;2023-02-28T06:09:56;94413.00;;;6.34;72.61
30935;BME280;51033;42.648;23.292;2023-02-28T06:12:21;94400.53;;;6.45;72.39
30935;BME280;51033;42.648;23.292;2023-02-28T06:14:46;94407.50;;;6.74;70.85
30935;BME280;51033;42.648;23.292;2023-02-28T06:17:12;94407.47;;;6.30;71.78
30935;BME280;51033;42.648;23.292;2023-02-28T06:19:38;94388.94;;;6.35;72.01
30935;BME280;51033;42.648;23.292;2023-02-28T06:22:06;94406.00;;;6.58;71.29
30935;BME280;51033;42.648;23.292;2023-02-28T06:24:32;94416.09;;;6.46;71.52
30935;BME280;51033;42.648;23.292;2023-02-28T06:26:57;94427.38;;;5.87;74.14
30935;BME280;51033;42.648;23.292;2023-02-28T06:29:30;94428.47;;;5.86;74.31
30935;BME280;51033;42.648;23.292;2023-02-28T06:31:56;94416.31;;;5.85;74.52
30935;BME280;51033;42.648;23.292;2023-02-28T06:34:21;94415.44;;;6.15;73.55
30935;BME280;51033;42.648;23.292;2023-02-28T06:36:47;94430.38;;;6.45;72.53
30935;BME280;51033;42.648;23.292;2023-02-28T06:39:15;94423.34;;;6.15;73.35
30935;BME280;51033;42.648;23.292;2023-02-28T06:41:40;94425.22;;;6.10;73.98
30935;BME280;51033;42.648;23.292;2023-02-28T06:44:11;94450.69;;;6.55;73.13
30935;BME280;51033;42.648;23.292;2023-02-28T06:46:40;94436.88;;;6.63;72.05
30935;BME280;51033;42.648;23.292;2023-02-28T06:49:07;94421.53;;;6.70;71.28
30935;BME280;51033;42.648;23.292;2023-02-28T06:51:38;94449.91;;;6.49;72.43
30935;BME280;51033;42.648;23.292;2023-02-28T06:54:04;94457.78;;;6.59;72.59
30935;BME280;51033;42.648;23.292;2023-02-28T06:56:30;94450.75;;;6.89;71.52
30935;BME280;51033;42.648;23.292;2023-02-28T06:58:55;94432.75;;;6.91;70.65
30935;BME280;51033;42.648;23.292;2023-02-28T07:01:21;94455.59;;;6.71;71.08
30935;BME280;51033;42.648;23.292;2023-02-28T07:03:50;94448.06;;;6.50;72.46
30935;BME280;51033;42.648;23.292;2023-02-28T07:06:18;94449.19;;;6.28;73.15
30935;BME280;51033;42.648;23.292;2023-02-28T07:08:43;94450.91;;;6.63;72.81
30935;BME280;51033;42.648;23.292;2023-02-28T07:11:09;94449.06;;;6.64;72.72
30935;BME280;51033;42.648;23.292;2023-02-28T07:13:35;94453.72;;;6.77;71.95
30935;BME280;51033;42.648;23.292;2023-02-28T07:16:03;94455.81;;;6.31;73.66
30935;BME280;51033;42.648;23.292;2023-02-28T07:18:29;94447.88;;;6.36;73.51
30935;BME280;51033;42.648;23.292;2023-02-28T07:20:55;94446.94;;;5.86;75.18
30935;BME280;51033;42.648;23.292;2023-02-28T07:23:21;94449.47;;;6.27;74.85
30935;BME280;51033;42.648;23.292;2023-02-28T07:25:47;94455.91;;;6.65;73.53
30935;BME280;51033;42.648;23.292;2023-02-28T07:28:13;94458.03;;;6.63;72.75
30935;BME280;51033;42.648;23.292;2023-02-28T07:30:39;94457.69;;;6.79;72.55
30935;BME280;51033;42.648;23.292;2023-02-28T07:33:05;94438.09;;;6.80;71.78
30935;BME280;51033;42.648;23.292;2023-02-28T07:35:30;94447.56;;;6.92;71.50
30935;BME280;51033;42.648;23.292;2023-02-28T07:37:59;94455.66;;;7.05;71.87
30935;BME280;51033;42.648;23.292;2023-02-28T07:40:26;94465.59;;;7.23;70.75
30935;BME280;51033;42.648;23.292;2023-02-28T07:42:51;94456.88;;;7.23;71.04
30935;BME280;51033;42.648;23.292;2023-02-28T07:45:17;94455.28;;;7.22;70.19
30935;BME280;51033;42.648;23.292;2023-02-28T07:47:43;94463.41;;;7.30;70.43
30935;BME280;51033;42.648;23.292;2023-02-28T07:50:12;94454.66;;;7.35;70.35
30935;BME280;51033;42.648;23.292;2023-02-28T07:52:38;94450.88;;;7.12;71.17
30935;BME280;51033;42.648;23.292;2023-02-28T07:55:05;94458.59;;;7.04;71.95
30935;BME280;51033;42.648;23.292;2023-02-28T07:57:34;94453.75;;;6.72;72.86
30935;BME280;51033;42.648;23.292;2023-02-28T07:59:59;94434.47;;;6.66;73.15
30935;BME280;51033;42.648;23.292;2023-02-28T08:02:25;94439.13;;;6.90;72.72
30935;BME280;51033;42.648;23.292;2023-02-28T08:04:50;94446.34;;;6.74;73.26
30935;BME280;51033;42.648;23.292;2023-02-28T08:07:16;94455.06;;;6.74;73.65
30935;BME280;51033;42.648;23.292;2023-02-28T08:09:42;94449.25;;;7.16;72.58
30935;BME280;51033;42.648;23.292;2023-02-28T08:12:09;94442.22;;;6.97;73.16
30935;BME280;51033;42.648;23.292;2023-02-28T08:14:35;94448.56;;;7.01;73.36
30935;BME280;51033;42.648;23.292;2023-02-28T08:17:01;94448.41;;;7.21;72.69
30935;BME280;51033;42.648;23.292;2023-02-28T08:19:27;94441.16;;;7.37;71.81
30935;BME280;51033;42.648;23.292;2023-02-28T08:21:54;94425.03;;;7.33;71.17
30935;BME280;51033;42.648;23.292;2023-02-28T08:24:19;94460.78;;;7.59;71.11
30935;BME280;51033;42.648;23.292;2023-02-28T08:26:45;94446.03;;;7.53;70.61
30935;BME280;51033;42.648;23.292;2023-02-28T08:29:10;94425.50;;;7.40;71.01
30935;BME280;51033;42.648;23.292;2023-02-28T08:31:35;94460.84;;;7.54;71.10
30935;BME280;51033;42.648;23.292;2023-02-28T08:34:06;94425.69;;;7.49;70.81
30935;BME280;51033;42.648;23.292;2023-02-28T08:36:31;94459.53;;;7.86;70.15
30935;BME280;51033;42.648;23.292;2023-02-28T08:38:57;94469.72;;;7.68;70.83
30935;BME280;51033;42.648;23.292;2023-02-28T08:41:23;94467.75;;;7.84;69.90
30935;BME280;51033;42.648;23.292;2023-02-28T08:43:48;94449.06;;;7.70;69.80
30935;BME280;51033;42.648;23.292;2023-02-28T08:46:13;94452.25;;;7.73;69.54
30935;BME280;51033;42.648;23.292;2023-02-28T08:48:39;94459.22;;;7.58;70.61
30935;BME280;51033;42.648;23.292;2023-02-28T08:51:11;94438.06;;;7.53;70.36
30935;BME280;51033;42.648;23.292;2023-02-28T08:53:37;94444.47;;;7.52;70.55
30935;BME280;51033;42.648;23.292;2023-02-28T08:56:10;94471.44;;;7.54;70.85
30935;BME280;51033;42.648;23.292;2023-02-28T08:58:36;94460.13;;;7.44;70.78
30935;BME280;51033;42.648;23.292;2023-02-28T09:01:13;94468.88;;;7.44;71.10
30935;BME280;51033;42.648;23.292;2023-02-28T09:03:39;94477.41;;;7.36;71.92
30935;BME280;51033;42.648;23.292;2023-02-28T09:06:06;94467.88;;;7.35;71.83
30935;BME280;51033;42.648;23.292;2023-02-28T09:08:32;94463.88;;;7.43;71.95
30935;BME280;51033;42.648;23.292;2023-02-28T09:10:58;94458.28;;;7.44;71.85
30935;BME280;51033;42.648;23.292;2023-02-28T09:13:25;94441.06;;;7.47;70.90
30935;BME280;51033;42.648;23.292;2023-02-28T09:15:50;94440.72;;;7.53;71.45
30935;BME280;51033;42.648;23.292;2023-02-28T09:18:16;94446.03;;;7.53;71.80
30935;BME280;51033;42.648;23.292;2023-02-28T09:20:42;94446.19;;;7.67;71.63
30935;BME280;51033;42.648;23.292;2023-02-28T09:23:09;94443.75;;;7.76;71.86
30935;BME280;51033;42.648;23.292;2023-02-28T09:25:35;94453.84;;;7.68;72.67
30935;BME280;51033;42.648;23.292;2023-02-28T09:28:01;94459.63;;;7.76;72.28
30935;BME280;51033;42.648;23.292;2023-02-28T09:30:27;94458.97;;;7.89;72.89
30935;BME280;51033;42.648;23.292;2023-02-28T09:32:53;94446.28;;;7.86;72.70
30935;BME280;51033;42.648;23.292;2023-02-28T09:35:22;94439.38;;;7.90;72.17
30935;BME280;51033;42.648;23.292;2023-02-28T09:37:51;94455.78;;;7.92;72.04
30935;BME280;51033;42.648;23.292;2023-02-28T09:40:18;94439.22;;;8.05;72.10
30935;BME280;51033;42.648;23.292;2023-02-28T09:42:49;94448.06;;;8.19;71.84
30935;BME280;51033;42.648;23.292;2023-02-28T09:45:36;94450.75;;;7.90;73.06
30935;BME280;51033;42.648;23.292;2023-02-28T09:48:17;94441.84;;;7.81;73.28
30935;BME280;51033;42.648;23.292;2023-02-28T09:50:48;94450.06;;;8.27;72.71
30935;BME280;51033;42.648;23.292;2023-02-28T09:53:27;94440.59;;;8.45;71.76
30935;BME280;51033;42.648;23.292;2023-02-28T09:56:24;94432.88;;;8.48;71.79
30935;BME280;51033;42.648;23.292;2023-02-28T09:58:58;94438.31;;;8.57;70.54
30935;BME280;51033;42.648;23.292;2023-02-28T10:04:44;94439.69;;;8.73;71.02
30935;BME280;51033;42.648;23.292;2023-02-28T10:09:55;94437.88;;;7.79;73.80
30935;BME280;51033;42.648;23.292;2023-02-28T10:12:24;94411.34;;;8.07;72.62
30935;BME280;51033;42.648;23.292;2023-02-28T10:14:52;94415.38;;;8.05;73.10
30935;BME280;51033;42.648;23.292;2023-02-28T10:17:23;94428.03;;;8.08;73.79
30935;BME280;51033;42.648;23.292;2023-02-28T10:22:25;94415.94;;;8.26;72.58
30935;BME280;51033;42.648;23.292;2023-02-28T10:24:55;94405.53;;;8.29;72.67
30935;BME280;51033;42.648;23.292;2023-02-28T10:27:29;94399.56;;;8.61;71.25
30935;BME280;51033;42.648;23.292;2023-02-28T10:29:57;94396.81;;;8.47;71.16
30935;BME280;51033;42.648;23.292;2023-02-28T10:32:30;94391.91;;;8.17;72.39
30935;BME280;51033;42.648;23.292;2023-02-28T10:37:36;94369.97;;;7.88;73.31
30935;BME280;51033;42.648;23.292;2023-02-28T10:40:25;94407.50;;;7.71;74.91
30935;BME280;51033;42.648;23.292;2023-02-28T10:43:02;94395.03;;;7.71;76.36
30935;BME280;51033;42.648;23.292;2023-02-28T10:45:32;94384.59;;;7.85;75.31
30935;BME280;51033;42.648;23.292;2023-02-28T10:50:45;94386.81;;;7.44;75.82
30935;BME280;51033;42.648;23.292;2023-02-28T10:55:41;94374.25;;;7.31;77.97
30935;BME280;51033;42.648;23.292;2023-02-28T10:58:24;94368.28;;;7.44;78.56
30935;BME280;51033;42.648;23.292;2023-02-28T11:00:51;94349.41;;;7.27;78.27
30935;BME280;51033;42.648;23.292;2023-02-28T11:05:49;94352.25;;;7.07;78.36
30935;BME280;51033;42.648;23.292;2023-02-28T11:08:16;94352.88;;;6.94;78.50
30935;BME280;51033;42.648;23.292;2023-02-28T11:10:54;94344.28;;;6.78;79.52
30935;BME280;51033;42.648;23.292;2023-02-28T11:13:24;94343.41;;;6.88;79.56
30935;BME280;51033;42.648;23.292;2023-02-28T11:15:52;94352.06;;;6.98;79.73
30935;BME280;51033;42.648;23.292;2023-02-28T11:18:27;94356.28;;;6.99;79.08
30935;BME280;51033;42.648;23.292;2023-02-28T11:20:56;94325.19;;;6.81;79.04
30935;BME280;51033;42.648;23.292;2023-02-28T11:23:25;94346.34;;;6.81;79.26
30935;BME280;51033;42.648;23.292;2023-02-28T11:25:56;94336.16;;;7.03;78.73
30935;BME280;51033;42.648;23.292;2023-02-28T11:28:35;94342.44;;;6.78;78.01
30935;BME280;51033;42.648;23.292;2023-02-28T11:36:02;94310.25;;;6.66;78.11
30935;BME280;51033;42.648;23.292;2023-02-28T11:38:30;94332.59;;;6.84;78.40
30935;BME280;51033;42.648;23.292;2023-02-28T11:44:00;94335.00;;;7.09;77.60
30935;BME280;51033;42.648;23.292;2023-02-28T11:52:21;94325.66;;;7.22;76.79
30935;BME280;51033;42.648;23.292;2023-02-28T11:55:29;94326.66;;;7.26;78.05
30935;BME280;51033;42.648;23.292;2023-02-28T12:03:29;94306.22;;;7.08;75.96
30935;BME280;51033;42.648;23.292;2023-02-28T12:11:50;94308.78;;;7.18;75.04
30935;BME280;51033;42.648;23.292;2023-02-28T12:17:05;94321.16;;;6.94;75.70
30935;BME280;51033;42.648;23.292;2023-02-28T12:22:50;94291.41;;;6.78;75.25
30935;BME280;51033;42.648;23.292;2023-02-28T12:28:25;94322.09;;;7.08;75.42
30935;BME280;51033;42.648;23.292;2023-02-28T12:33:43;94317.97;;;6.92;75.22
30935;BME280;51033;42.648;23.292;2023-02-28T12:36:11;94317.97;;;6.92;74.69
30935;BME280;51033;42.648;23.292;2023-02-28T12:41:19;94326.81;;;6.77;75.41
30935;BME280;51033;42.648;23.292;2023-02-28T12:44:17;94312.69;;;6.92;75.25
30935;BME280;51033;42.648;23.292;2023-02-28T12:46:50;94310.13;;;6.81;75.34
30935;BME280;51033;42.648;23.292;2023-02-28T12:52:23;94308.38;;;7.01;75.14
30935;BME280;51033;42.648;23.292;2023-02-28T12:55:03;94282.31;;;6.89;77.05
30935;BME280;51033;42.648;23.292;2023-02-28T12:57:42;94315.72;;;7.09;77.18
30935;BME280;51033;42.648;23.292;2023-02-28T13:00:16;94304.72;;;7.25;74.98
30935;BME280;51033;42.648;23.292;2023-02-28T13:03:09;94306.28;;;7.26;75.69
30935;BME280;51033;42.648;23.292;2023-02-28T13:11:31;94281.41;;;6.75;75.10
30935;BME280;51033;42.648;23.292;2023-02-28T13:14:05;94306.31;;;6.98;75.44
30935;BME280;51033;42.648;23.292;2023-02-28T13:17:01;94315.00;;;6.69;76.36
30935;BME280;51033;42.648;23.292;2023-02-28T13:19:30;94312.69;;;6.92;76.23
30935;BME280;51033;42.648;23.292;2023-02-28T13:21:57;94285.81;;;6.84;75.48
30935;BME280;51033;42.648;23.292;2023-02-28T13:29:51;94303.88;;;6.72;76.15
30935;BME280;51033;42.648;23.292;2023-02-28T13:32:30;94305.50;;;6.97;76.25
30935;BME280;51033;42.648;23.292;2023-02-28T13:40:26;94299.81;;;7.14;74.42
30935;BME280;51033;42.648;23.292;2023-02-28T13:42:52;94297.13;;;7.19;74.62
30935;BME280;51033;42.648;23.292;2023-02-28T13:45:21;94300.50;;;6.96;74.52
30935;BME280;51033;42.648;23.292;2023-02-28T13:47:54;94297.31;;;6.99;74.52
30935;BME280;51033;42.648;23.292;2023-02-28T13:52:57;94285.16;;;6.98;74.89
30935;BME280;51033;42.648;23.292;2023-02-28T13:55:31;94259.81;;;6.63;75.64
30935;BME280;51033;42.648;23.292;2023-02-28T14:01:14;94281.53;;;6.89;75.75
30935;BME280;51033;42.648;23.292;2023-02-28T14:04:13;94273.66;;;6.83;75.75
30935;BME280;51033;42.648;23.292;2023-02-28T14:06:54;94263.59;;;6.80;75.59
30935;BME280;51033;42.648;23.292;2023-02-28T14:11:58;94256.28;;;6.72;75.68
30935;BME280;51033;42.648;23.292;2023-02-28T14:17:14;94257.25;;;6.53;76.58
30935;BME280;51033;42.648;23.292;2023-02-28T14:19:44;94256.88;;;6.64;76.21
30935;BME280;51033;42.648;23.292;2023-02-28T14:38:27;94268.75;;;6.96;73.56
30935;BME280;51033;42.648;23.292;2023-02-28T14:40:56;94270.13;;;6.93;73.79
30935;BME280;51033;42.648;23.292;2023-02-28T14:43:27;94267.34;;;6.79;73.88
30935;BME280;51033;42.648;23.292;2023-02-28T14:46:00;94244.56;;;6.55;73.59
30935;BME280;51033;42.648;23.292;2023-02-28T14:48:28;94246.38;;;6.59;74.12
30935;BME280;51033;42.648;23.292;2023-02-28T14:50:56;94253.22;;;6.60;74.65
30935;BME280;51033;42.648;23.292;2023-02-28T14:53:26;94248.06;;;6.45;75.28
30935;BME280;51033;42.648;23.292;2023-02-28T14:55:52;94222.31;;;6.22;75.40
30935;BME280;51033;42.648;23.292;2023-02-28T14:58:29;94271.25;;;6.53;76.95
30935;BME280;51033;42.648;23.292;2023-02-28T15:01:01;94275.78;;;6.48;77.74
30935;BME280;51033;42.648;23.292;2023-02-28T15:03:31;94270.91;;;6.31;78.33
30935;BME280;51033;42.648;23.292;2023-02-28T15:05:59;94276.41;;;6.34;78.39
30935;BME280;51033;42.648;23.292;2023-02-28T15:08:25;94267.41;;;6.35;76.76
30935;BME280;51033;42.648;23.292;2023-02-28T15:10:55;94267.09;;;6.42;77.82
30935;BME280;51033;42.648;23.292;2023-02-28T15:13:22;94263.50;;;6.28;79.06
30935;BME280;51033;42.648;23.292;2023-02-28T15:15:55;94094.69;;;5.20;78.60
30935;BME280;51033;42.648;23.292;2023-02-28T15:20:50;94264.16;;;6.05;79.93
30935;BME280;51033;42.648;23.292;2023-02-28T15:23:17;94271.03;;;6.00;80.48
30935;BME280;51033;42.648;23.292;2023-02-28T15:25:43;94261.38;;;5.81;80.48
30935;BME280;51033;42.648;23.292;2023-02-28T15:28:15;94284.38;;;5.75;81.20
30935;BME280;51033;42.648;23.292;2023-02-28T15:30:51;94273.28;;;5.73;80.88
30935;BME280;51033;42.648;23.292;2023-02-28T15:33:18;94290.69;;;5.79;80.27
30935;BME280;51033;42.648;23.292;2023-02-28T15:35:44;94221.16;;;5.45;80.38